Time;durP1;ratioP1;P1;durP2;ratioP2;P2;SDS_P1;SDS_P2;PMS_P1;PMS_P2;Temp;Humidity;BMP_temperature;BMP_pressure;BME280_temperature;BME280_humidity;BME280_pressure;Samples;Min_cycle;Max_cycle;Signal;HPM_P1;HPM_P2
2022/11/18 00:00:47;;;;;;;13.68;11.98;;;7.10;99.90;;;;;;5124869;28;20062;-78
2022/11/18 00:03:12;;;;;;;13.57;11.15;;;7.10;99.90;;;;;;5124795;28;20047;-78
2022/11/18 00:05:38;;;;;;;16.42;12.20;;;7.10;99.90;;;;;;5124379;28;20043;-79
2022/11/18 00:08:04;;;;;;;17.25;11.55;;;8.10;99.90;;;;;;5106985;28;20035;-79
2022/11/18 00:10:29;;;;;;;16.90;12.43;;;7.10;99.90;;;;;;5124860;28;20350;-79
2022/11/18 00:15:40;;;;;;;13.60;10.50;;;7.10;99.90;;;;;;5124727;28;20050;-79
2022/11/18 00:18:06;;;;;;;14.60;11.90;;;7.10;99.90;;;;;;5124951;28;20061;-79
2022/11/18 00:20:35;;;;;;;13.88;11.05;;;7.10;99.90;;;;;;5124229;27;20134;-79
2022/11/18 00:23:01;;;;;;;12.77;11.27;;;7.10;99.90;;;;;;5111591;27;20039;-80
2022/11/18 00:25:27;;;;;;;14.20;11.25;;;7.10;99.90;;;;;;5111191;27;20130;-80
2022/11/18 00:27:53;;;;;;;13.35;10.95;;;7.00;99.90;;;;;;5093907;27;20073;-79
2022/11/18 00:30:18;;;;;;;16.33;11.57;;;7.00;99.90;;;;;;5128423;27;20085;-79
2022/11/18 00:32:44;;;;;;;13.98;10.82;;;7.00;99.90;;;;;;5111247;27;20469;-80
2022/11/18 00:35:10;;;;;;;11.40;10.20;;;7.00;99.90;;;;;;5110757;27;20047;-79
2022/11/18 00:37:35;;;;;;;14.73;11.32;;;7.00;99.90;;;;;;5110502;27;20126;-80
2022/11/18 00:40:02;;;;;;;13.80;10.80;;;7.00;99.90;;;;;;5110773;27;20050;-80
2022/11/18 00:45:11;;;;;;;13.00;10.82;;;7.70;99.90;;;;;;5127531;27;20138;-79
2022/11/18 00:47:37;;;;;;;12.80;10.57;;;7.00;99.90;;;;;;5094123;27;20122;-79
2022/11/18 00:50:03;;;;;;;18.35;11.32;;;7.00;99.90;;;;;;5110449;27;20530;-80
2022/11/18 00:52:29;;;;;;;12.95;9.55;;;7.00;99.90;;;;;;5110660;27;20074;-79
2022/11/18 00:54:54;;;;;;;13.07;10.10;;;7.00;99.90;;;;;;5127273;27;20131;-80
2022/11/18 00:57:20;;;;;;;13.85;10.35;;;7.80;99.90;;;;;;5127584;27;20088;-79
2022/11/18 00:59:45;;;;;;;16.67;10.98;;;7.00;99.90;;;;;;5110626;27;20543;-79
2022/11/18 01:02:11;;;;;;;14.98;11.00;;;7.20;99.90;;;;;;5127228;27;20501;-79
2022/11/18 01:04:37;;;;;;;14.88;10.93;;;6.90;99.90;;;;;;5127863;27;20474;-80
2022/11/18 01:07:02;;;;;;;17.92;11.80;;;6.50;99.90;;;;;;5076571;27;20054;-80
2022/11/18 01:09:28;;;;;;;16.05;12.13;;;6.90;99.90;;;;;;5110530;27;20443;-78
2022/11/18 01:14:38;;;;;;;18.38;10.48;;;6.90;99.90;;;;;;5113854;27;20146;-77
2022/11/18 01:17:03;;;;;;;18.83;12.15;;;6.90;99.90;;;;;;5127305;27;20118;-78
2022/11/18 01:19:29;;;;;;;15.68;11.35;;;6.90;99.90;;;;;;5127624;27;20042;-78
2022/11/18 01:22:01;;;;;;;18.63;11.25;;;6.90;99.90;;;;;;5110682;27;20047;-77
2022/11/18 01:24:28;;;;;;;18.23;12.30;;;6.90;99.90;;;;;;5127287;27;20047;-79
2022/11/18 01:26:54;;;;;;;16.25;11.45;;;6.90;99.90;;;;;;5110051;27;20047;-78
2022/11/18 01:29:20;;;;;;;17.45;11.82;;;6.90;99.90;;;;;;5109527;27;20054;-79
2022/11/18 01:31:45;;;;;;;16.58;12.18;;;6.90;99.90;;;;;;5126637;27;20126;-79
2022/11/18 01:34:11;;;;;;;19.17;13.52;;;7.00;99.90;;;;;;5126294;27;20050;-79
2022/11/18 01:36:37;;;;;;;19.42;11.93;;;6.90;99.90;;;;;;5092753;27;20166;-78
2022/11/18 01:39:03;;;;;;;22.15;12.90;;;6.90;99.90;;;;;;5127280;27;20129;-78
2022/11/18 01:41:29;;;;;;;19.48;12.20;;;6.90;99.90;;;;;;5109562;27;20051;-79
2022/11/18 01:43:57;;;;;;;18.55;12.50;;;6.90;99.90;;;;;;5110353;27;20115;-79
2022/11/18 01:46:25;;;;;;;18.33;12.55;;;6.90;99.90;;;;;;5109822;27;20072;-79
2022/11/18 01:48:58;;;;;;;20.10;12.45;;;6.90;99.90;;;;;;5127396;27;20035;-78
2022/11/18 01:51:33;;;;;;;14.93;9.30;;;7.40;99.90;;;;;;5126295;27;20050;-78
2022/11/18 01:54:06;;;;;;;17.05;11.85;;;6.90;99.90;;;;;;5109506;27;20126;-78
2022/11/18 01:56:42;;;;;;;17.85;12.00;;;6.90;99.90;;;;;;5109999;27;20191;-78
2022/11/18 01:59:14;;;;;;;20.13;11.77;;;6.90;99.90;;;;;;5126367;27;20051;-78
2022/11/18 02:01:40;;;;;;;16.58;12.90;;;6.90;99.90;;;;;;5109616;27;20050;-79
2022/11/18 02:04:08;;;;;;;17.13;12.50;;;7.20;99.90;;;;;;5127007;27;20521;-79
2022/11/18 02:06:34;;;;;;;14.80;11.27;;;6.90;99.90;;;;;;5109022;27;20104;-79
2022/11/18 02:09:00;;;;;;;21.15;12.52;;;7.40;99.90;;;;;;5126446;27;20046;-79
2022/11/18 02:14:10;;;;;;;23.25;13.20;;;8.00;99.90;;;;;;5111932;27;20088;-79
2022/11/18 02:16:59;;;;;;;19.58;11.90;;;7.20;99.90;;;;;;5126677;27;20043;-79
2022/11/18 02:19:43;;;;;;;17.17;11.75;;;6.90;99.90;;;;;;5126051;27;20043;-79
2022/11/18 02:22:39;;;;;;;21.52;11.43;;;6.80;99.90;;;;;;5126537;27;20043;-79
2022/11/18 02:25:28;;;;;;;18.38;12.20;;;6.80;99.90;;;;;;5126417;27;20058;-79
2022/11/18 02:28:24;;;;;;;18.45;12.40;;;6.80;99.90;;;;;;5129374;27;20129;-79
2022/11/18 02:31:34;;;;;;;20.60;12.75;;;6.80;99.90;;;;;;5130149;27;20042;-79
2022/11/18 02:34:08;;;;;;;19.58;11.85;;;6.80;99.90;;;;;;5010920;28;20071;-79
2022/11/18 02:36:51;;;;;;;22.40;11.98;;;6.80;99.90;;;;;;5027132;28;20045;-79
2022/11/18 02:39:28;;;;;;;19.10;10.88;;;6.80;99.90;;;;;;5074788;27;20047;-79
2022/11/18 02:41:56;;;;;;;19.25;11.25;;;6.80;99.90;;;;;;5128987;27;20409;-78
2022/11/18 02:44:24;;;;;;;19.45;12.10;;;7.20;99.90;;;;;;5129040;27;20397;-78
2022/11/18 02:46:56;;;;;;;20.15;12.43;;;6.80;99.90;;;;;;5128852;27;20042;-79
2022/11/18 02:49:30;;;;;;;19.40;11.85;;;6.80;99.90;;;;;;5129255;27;20395;-79
2022/11/18 02:51:57;;;;;;;19.63;12.57;;;6.80;99.90;;;;;;5129043;27;20493;-79
2022/11/18 02:54:25;;;;;;;22.77;12.30;;;6.70;99.90;;;;;;5111964;27;20139;-79
2022/11/18 02:56:52;;;;;;;18.25;12.52;;;7.40;99.90;;;;;;5129477;27;20155;-79
2022/11/18 02:59:19;;;;;;;19.08;12.15;;;6.70;99.90;;;;;;5128881;27;20039;-79
2022/11/18 03:01:45;;;;;;;23.27;12.25;;;6.70;99.90;;;;;;5128888;27;20069;-79
2022/11/18 03:04:13;;;;;;;22.50;12.55;;;6.70;99.90;;;;;;5128678;27;20054;-79
2022/11/18 03:07:02;;;;;;;18.90;12.32;;;7.30;99.90;;;;;;5129237;27;20058;-79
2022/11/18 03:09:35;;;;;;;18.10;11.88;;;6.70;99.90;;;;;;5111731;27;20048;-78
2022/11/18 03:12:17;;;;;;;21.48;11.07;;;6.70;99.90;;;;;;5128963;27;20438;-79
2022/11/18 03:15:00;;;;;;;20.60;12.27;;;6.70;99.90;;;;;;5128874;27;20047;-79
2022/11/18 03:17:40;;;;;;;14.10;8.70;;;6.80;99.90;;;;;;5128487;27;20050;-79
2022/11/18 03:20:33;;;;;;;21.13;12.30;;;6.60;99.90;;;;;;5127610;27;20216;-79
2022/11/18 03:23:25;;;;;;;21.65;11.55;;;6.60;99.90;;;;;;5147186;27;20046;-79
2022/11/18 03:26:01;;;;;;;18.75;11.32;;;6.60;99.90;;;;;;5128088;27;20055;-79
2022/11/18 03:29:00;;;;;;;16.23;11.35;;;6.60;99.90;;;;;;5128836;27;20390;-80
2022/11/18 03:31:36;;;;;;;20.95;10.68;;;6.60;99.90;;;;;;5115073;27;20522;-80
2022/11/18 03:34:14;;;;;;;20.27;10.85;;;6.60;99.90;;;;;;5111192;27;20110;-80
2022/11/18 03:36:44;;;;;;;19.25;11.73;;;6.60;99.90;;;;;;5111747;27;20371;-80
2022/11/18 03:39:12;;;;;;;22.60;11.48;;;6.60;99.90;;;;;;5128187;27;20040;-79
2022/11/18 03:41:45;;;;;;;17.67;11.48;;;6.50;99.90;;;;;;5110990;27;20079;-79
2022/11/18 03:44:18;;;;;;;15.80;11.38;;;6.50;99.90;;;;;;5128879;27;20068;-79
2022/11/18 03:47:03;;;;;;;;;;;7.20;99.90;;;;;;5128724;27;20046;-79
2022/11/18 03:49:36;;;;;;;21.75;11.75;;;6.50;99.90;;;;;;5127867;27;19919;-79
2022/11/18 03:52:10;;;;;;;20.75;11.70;;;6.50;99.90;;;;;;5128367;27;20471;-79
2022/11/18 03:54:38;;;;;;;18.38;11.95;;;6.50;99.90;;;;;;5110502;27;20061;-79
2022/11/18 03:57:11;;;;;;;17.50;10.63;;;6.50;99.90;;;;;;5127596;27;20121;-79
2022/11/18 03:59:43;;;;;;;19.17;11.55;;;6.50;99.90;;;;;;5128078;27;20402;-79
2022/11/18 04:02:19;;;;;;;22.37;11.43;;;6.50;99.90;;;;;;5111242;27;20057;-79
2022/11/18 04:04:48;;;;;;;20.38;10.60;;;6.50;99.90;;;;;;5128542;27;20454;-79
2022/11/18 04:07:40;;;;;;;19.35;11.05;;;6.50;99.90;;;;;;5128150;27;20134;-79
2022/11/18 04:10:16;;;;;;;15.83;10.43;;;6.50;99.90;;;;;;5128277;27;20043;-79
2022/11/18 04:13:06;;;;;;;15.02;10.85;;;6.50;99.90;;;;;;5110107;27;20347;-79
2022/11/18 04:15:35;;;;;;;12.55;9.70;;;6.50;99.90;;;;;;5110612;27;20050;-79
2022/11/18 04:18:01;;;;;;;16.83;11.98;;;6.40;99.90;;;;;;5127977;27;20035;-79
2022/11/18 04:20:27;;;;;;;15.00;10.80;;;7.20;99.90;;;;;;5127703;27;20137;-78
2022/11/18 04:22:53;;;;;;;20.13;11.68;;;6.40;99.90;;;;;;5127673;27;20595;-79
2022/11/18 04:25:19;;;;;;;15.18;11.02;;;6.50;99.90;;;;;;5110580;27;20043;-79
2022/11/18 04:27:44;;;;;;;23.70;13.00;;;6.50;99.90;;;;;;5128179;27;20459;-79
2022/11/18 04:30:10;;;;;;;17.80;11.32;;;7.40;99.90;;;;;;5110484;27;20039;-79
2022/11/18 04:32:36;;;;;;;17.33;12.05;;;7.30;99.90;;;;;;5110304;27;20087;-80
2022/11/18 04:35:02;;;;;;;17.02;10.65;;;6.40;99.90;;;;;;5110752;27;20038;-79
2022/11/18 04:37:28;;;;;;;18.60;11.02;;;6.40;99.90;;;;;;5126779;27;20107;-79
2022/11/18 04:39:53;;;;;;;20.52;11.20;;;6.40;99.90;;;;;;5127629;27;20042;-79
2022/11/18 04:42:19;;;;;;;17.23;11.65;;;6.80;99.90;;;;;;5109813;27;20046;-79
2022/11/18 04:44:45;;;;;;;18.27;11.50;;;6.40;99.90;;;;;;5128042;27;20188;-80
2022/11/18 04:47:11;;;;;;;19.30;11.73;;;6.40;99.90;;;;;;5110175;27;20557;-79
2022/11/18 04:49:36;;;;;;;20.05;11.10;;;6.80;99.90;;;;;;5093856;27;20031;-80
2022/11/18 04:52:02;;;;;;;16.35;9.63;;;7.00;99.90;;;;;;5110794;27;20035;-79
2022/11/18 04:54:28;;;;;;;16.08;11.35;;;6.40;99.90;;;;;;5110086;27;20038;-80
2022/11/18 04:56:54;;;;;;;19.02;11.23;;;7.10;99.90;;;;;;5110427;27;20050;-80
2022/11/18 04:59:26;;;;;;;16.27;10.45;;;6.40;99.90;;;;;;5110195;27;20479;-80
2022/11/18 05:01:53;;;;;;;19.25;10.75;;;5.80;99.90;;;;;;5127711;27;20038;-79
2022/11/18 05:04:21;;;;;;;17.92;11.35;;;7.00;99.90;;;;;;5126656;27;20035;-80
2022/11/18 05:06:47;;;;;;;14.30;10.35;;;6.30;99.90;;;;;;5127578;27;20042;-80
2022/11/18 05:09:13;;;;;;;15.48;10.35;;;6.40;99.90;;;;;;5131352;27;20077;-80
2022/11/18 05:14:28;;;;;;;16.42;9.88;;;7.10;99.90;;;;;;5130857;27;20043;-80
2022/11/18 05:16:55;;;;;;;15.02;10.15;;;6.40;99.90;;;;;;5113526;27;20042;-80
2022/11/18 05:19:21;;;;;;;15.80;10.20;;;7.10;99.90;;;;;;5131412;27;20099;-80
2022/11/18 05:21:47;;;;;;;14.38;9.82;;;6.40;99.90;;;;;;5113189;27;20042;-80
2022/11/18 05:24:13;;;;;;;18.90;10.18;;;7.10;99.90;;;;;;5113044;27;20727;-80
2022/11/18 05:26:39;;;;;;;13.57;9.30;;;6.30;99.90;;;;;;5131165;27;20042;-80
2022/11/18 05:29:05;;;;;;;19.52;9.60;;;6.30;99.90;;;;;;5113723;27;20390;-80
2022/11/18 05:31:31;;;;;;;13.88;9.95;;;7.10;99.90;;;;;;5114062;27;20378;-80
2022/11/18 05:33:57;;;;;;;16.58;9.82;;;6.30;99.90;;;;;;5130443;27;20130;-80
2022/11/18 05:36:23;;;;;;;15.70;9.88;;;6.30;99.90;;;;;;5113946;27;20487;-80
2022/11/18 05:38:49;;;;;;;17.67;9.95;;;7.10;99.90;;;;;;5113100;27;20088;-80
2022/11/18 05:44:00;;;;;;;16.23;9.75;;;6.30;99.90;;;;;;5130819;27;20111;-80
2022/11/18 05:46:25;;;;;;;14.65;9.73;;;6.30;99.90;;;;;;5112624;27;20142;-80
2022/11/18 05:48:51;;;;;;;18.85;11.15;;;6.30;99.90;;;;;;5113360;27;20122;-80
2022/11/18 05:51:17;;;;;;;16.90;9.57;;;6.90;99.90;;;;;;5113506;27;20130;-80
2022/11/18 05:53:43;;;;;;;25.92;10.32;;;6.30;99.90;;;;;;5130474;27;20482;-80
2022/11/18 05:56:20;;;;;;;18.48;10.02;;;6.30;99.90;;;;;;5129665;27;20050;-81
2022/11/18 05:58:45;;;;;;;22.52;11.40;;;6.30;99.90;;;;;;5112381;27;20054;-80
2022/11/18 06:01:14;;;;;;;23.23;10.55;;;6.30;99.90;;;;;;5096306;27;20091;-80
2022/11/18 06:03:40;;;;;;;19.08;10.52;;;6.20;99.90;;;;;;5130132;27;20091;-81
2022/11/18 06:06:08;;;;;;;14.77;10.45;;;6.40;99.90;;;;;;5095893;27;20850;-80
2022/11/18 06:08:39;;;;;;;19.75;8.32;;;6.20;99.90;;;;;;5129442;27;20069;-80
2022/11/18 06:11:09;;;;;;;20.00;9.98;;;6.30;99.90;;;;;;5112545;27;20090;-81
2022/11/18 06:13:41;;;;;;;16.27;9.60;;;6.20;99.90;;;;;;5112909;27;20039;-79
2022/11/18 06:16:07;;;;;;;19.50;10.93;;;6.70;99.90;;;;;;5128675;27;20490;-80
2022/11/18 06:18:34;;;;;;;18.98;10.10;;;6.20;99.90;;;;;;5078450;27;20065;-81
2022/11/18 06:21:04;;;;;;;20.90;9.90;;;7.30;99.90;;;;;;5129121;27;20503;-82
2022/11/18 06:23:33;;;;;;;17.70;10.07;;;6.20;99.90;;;;;;5129737;27;20073;-81
2022/11/18 06:25:59;;;;;;;18.05;9.85;;;6.10;99.90;;;;;;5128840;27;20076;-81
2022/11/18 06:28:25;;;;;;;19.35;10.10;;;6.10;99.90;;;;;;5128697;27;20051;-81
2022/11/18 06:30:51;;;;;;;20.55;11.02;;;7.20;99.90;;;;;;5129476;27;20034;-79
2022/11/18 06:33:17;;;;;;;19.10;9.57;;;6.20;99.90;;;;;;5112158;27;20448;-86
2022/11/18 06:35:44;;;;;;;17.85;9.98;;;6.20;99.90;;;;;;5129167;27;20526;-81
2022/11/18 06:38:09;;;;;;;20.30;10.18;;;6.20;99.90;;;;;;5128961;27;20079;-81
2022/11/18 06:40:36;;;;;;;18.23;10.30;;;6.90;99.90;;;;;;5129837;27;20058;-81
2022/11/18 06:48:43;;;;;;;22.55;11.13;;;6.20;99.90;;;;;;5128991;27;20605;-81
2022/11/18 06:51:09;;;;;;;24.17;11.70;;;6.20;99.90;;;;;;5129268;27;20066;-81
2022/11/18 06:53:35;;;;;;;22.48;11.00;;;6.20;99.90;;;;;;5094957;27;20410;-81
2022/11/18 06:56:10;;;;;;;22.30;11.98;;;7.30;99.90;;;;;;5129090;27;20074;-81
2022/11/18 06:58:36;;;;;;;26.77;10.55;;;6.20;99.90;;;;;;5128490;27;20049;-81
2022/11/18 07:01:22;;;;;;;20.80;12.23;;;6.20;99.90;;;;;;5129403;27;20137;-81
2022/11/18 07:03:48;;;;;;;25.92;11.93;;;6.20;99.90;;;;;;5111590;27;20046;-81
2022/11/18 07:06:16;;;;;;;23.75;13.95;;;6.20;99.90;;;;;;5094884;27;20122;-81
2022/11/18 07:08:43;;;;;;;25.17;13.98;;;6.20;99.90;;;;;;5128403;27;20038;-81
2022/11/18 07:11:11;;;;;;;28.10;14.38;;;6.20;99.90;;;;;;5111384;27;20046;-81
2022/11/18 07:13:37;;;;;;;29.90;15.65;;;6.10;99.90;;;;;;5112170;27;20438;-80
2022/11/18 07:16:09;;;;;;;34.63;15.45;;;6.40;99.90;;;;;;5093968;27;20038;-80
2022/11/18 07:18:36;;;;;;;29.77;16.98;;;6.10;99.90;;;;;;5128698;27;20046;-80
2022/11/18 07:21:10;;;;;;;25.98;15.55;;;6.10;99.90;;;;;;5128809;27;20153;-80
2022/11/18 07:23:36;;;;;;;33.90;16.73;;;6.10;99.90;;;;;;5129283;27;20393;-80
2022/11/18 07:26:03;;;;;;;31.58;16.95;;;6.10;99.90;;;;;;5111621;27;20050;-80
2022/11/18 07:28:29;;;;;;;31.52;15.93;;;6.10;99.90;;;;;;5127948;27;20099;-80
2022/11/18 07:31:12;;;;;;;33.58;17.23;;;6.10;99.90;;;;;;5111998;27;20035;-80
2022/11/18 07:33:38;;;;;;;29.55;16.13;;;6.00;99.90;;;;;;5108976;27;20049;-81
2022/11/18 07:36:10;;;;;;;30.73;16.45;;;6.00;99.90;;;;;;5110584;27;20116;-81
2022/11/18 07:38:36;;;;;;;32.08;15.95;;;6.00;99.90;;;;;;5110892;27;20042;-81
2022/11/18 07:41:12;;;;;;;27.30;14.40;;;6.50;99.90;;;;;;5110902;27;20126;-83
2022/11/18 07:43:38;;;;;;;26.80;14.38;;;6.00;99.90;;;;;;5127791;27;20039;-81
2022/11/18 07:46:12;;;;;;;21.52;13.43;;;5.90;99.90;;;;;;5093662;27;20078;-81
2022/11/18 07:48:39;;;;;;;24.90;13.88;;;5.90;99.90;;;;;;5128050;27;20197;-81
2022/11/18 07:51:05;;;;;;;28.70;13.95;;;6.00;99.90;;;;;;5110975;27;20043;-81
2022/11/18 07:53:32;;;;;;;25.88;14.50;;;6.00;99.90;;;;;;5093992;27;20125;-81
2022/11/18 07:55:58;;;;;;;23.33;13.90;;;6.00;99.90;;;;;;5128502;27;20042;-80
2022/11/18 07:58:23;;;;;;;29.45;13.98;;;7.10;99.90;;;;;;5110470;27;20042;-81
2022/11/18 08:00:49;;;;;;;29.65;14.68;;;6.70;99.90;;;;;;5093976;27;20413;-81
2022/11/18 08:03:15;;;;;;;30.88;13.52;;;6.00;99.90;;;;;;5127402;27;20519;-81
2022/11/18 08:05:40;;;;;;;22.77;13.05;;;6.00;99.90;;;;;;5094287;27;20078;-81
2022/11/18 08:08:06;;;;;;;28.90;13.13;;;6.00;99.90;;;;;;5110636;27;20045;-81
2022/11/18 08:10:32;;;;;;;26.95;14.00;;;5.90;99.90;;;;;;5111104;27;20042;-81
2022/11/18 08:12:58;;;;;;;30.15;14.30;;;6.00;99.90;;;;;;5127780;27;20038;-81
2022/11/18 08:15:24;;;;;;;25.15;14.70;;;6.00;99.90;;;;;;5110497;27;20042;-80
2022/11/18 08:17:50;;;;;;;27.73;14.30;;;6.00;99.90;;;;;;5128208;27;20092;-80
2022/11/18 08:20:16;;;;;;;30.65;14.35;;;6.00;99.90;;;;;;5109718;27;20107;-80
2022/11/18 08:22:41;;;;;;;21.70;13.60;;;5.90;99.90;;;;;;5128011;27;20089;-80
2022/11/18 08:25:08;;;;;;;24.00;12.73;;;5.90;99.90;;;;;;5110440;27;20041;-80
2022/11/18 08:27:33;;;;;;;27.95;14.30;;;6.00;99.90;;;;;;5124185;28;20055;-79
2022/11/18 08:29:59;;;;;;;25.77;14.80;;;6.00;99.90;;;;;;5090188;28;20065;-80
2022/11/18 08:32:25;;;;;;;27.88;15.02;;;5.90;99.90;;;;;;5124542;28;20047;-79
2022/11/18 08:34:51;;;;;;;24.13;15.32;;;5.90;99.90;;;;;;5124408;28;20032;-80
2022/11/18 08:37:17;;;;;;;25.70;15.43;;;6.00;99.90;;;;;;5124561;28;20039;-80
2022/11/18 08:39:42;;;;;;;22.67;14.50;;;7.00;99.90;;;;;;5090100;28;20046;-79
2022/11/18 08:42:09;;;;;;;25.98;15.95;;;6.90;99.90;;;;;;5124570;27;20047;-79
2022/11/18 08:44:35;;;;;;;24.40;14.63;;;6.00;99.90;;;;;;5110986;27;20081;-81
2022/11/18 08:47:01;;;;;;;28.52;15.77;;;6.70;99.90;;;;;;5094294;27;20100;-80
2022/11/18 08:49:27;;;;;;;22.70;14.35;;;5.90;99.90;;;;;;5128663;27;20168;-81
2022/11/18 08:51:53;;;;;;;25.10;14.85;;;5.90;99.90;;;;;;5110966;27;20176;-80
2022/11/18 08:54:18;;;;;;;24.48;15.80;;;5.90;99.90;;;;;;5127354;27;20082;-81
2022/11/18 08:56:44;;;;;;;23.17;13.98;;;6.90;99.90;;;;;;5127901;27;20575;-80
2022/11/18 08:59:10;;;;;;;20.95;13.73;;;6.00;99.90;;;;;;5126997;27;20047;-81
2022/11/18 09:01:37;;;;;;;26.33;14.50;;;6.80;99.90;;;;;;5127860;27;20043;-81
2022/11/18 09:04:03;;;;;;;29.23;15.57;;;6.00;99.90;;;;;;5110680;27;20386;-81
2022/11/18 09:06:29;;;;;;;20.77;13.68;;;6.00;99.90;;;;;;5127546;27;20035;-81
2022/11/18 09:08:55;;;;;;;28.20;14.25;;;6.00;99.90;;;;;;5127278;27;20043;-81
2022/11/18 09:11:23;;;;;;;24.90;14.52;;;6.00;99.90;;;;;;5127221;27;20050;-81
2022/11/18 09:13:54;;;;;;;24.48;14.13;;;6.00;99.90;;;;;;5127974;27;20035;-81
2022/11/18 09:16:22;;;;;;;21.67;13.05;;;6.00;99.90;;;;;;5127324;27;20126;-81
2022/11/18 09:18:49;;;;;;;19.88;12.93;;;5.90;99.90;;;;;;5110364;27;20058;-81
2022/11/18 09:21:16;;;;;;;26.27;13.43;;;5.90;99.90;;;;;;5127464;27;20043;-81
2022/11/18 09:23:42;;;;;;;21.55;12.05;;;6.00;99.90;;;;;;5127197;27;20028;-81
2022/11/18 09:26:10;;;;;;;20.42;11.82;;;5.90;99.90;;;;;;5126822;27;20047;-81
2022/11/18 09:28:36;;;;;;;30.23;13.45;;;5.90;99.90;;;;;;5107584;27;20058;-81
2022/11/18 09:31:07;;;;;;;17.65;12.48;;;5.90;99.90;;;;;;5109040;27;20546;-82
2022/11/18 09:33:34;;;;;;;21.83;12.55;;;5.90;99.90;;;;;;5126839;27;20047;-81
2022/11/18 09:36:00;;;;;;;20.42;11.85;;;6.60;99.90;;;;;;5127011;27;20043;-80
2022/11/18 09:38:28;;;;;;;18.90;11.73;;;5.90;99.90;;;;;;5109510;27;20050;-80
2022/11/18 09:41:18;;;;;;;17.52;11.20;;;5.80;99.90;;;;;;5109604;27;20054;-80
2022/11/18 09:44:02;;;;;;;17.98;10.10;;;5.80;99.90;;;;;;5126824;27;20043;-80
2022/11/18 09:46:55;;;;;;;17.50;10.52;;;5.80;99.90;;;;;;5126796;27;20569;-81
2022/11/18 09:49:29;;;;;;;20.60;9.85;;;5.80;99.90;;;;;;5127058;27;20100;-82
2022/11/18 09:51:55;;;;;;;16.65;10.07;;;5.80;99.90;;;;;;5126396;27;20078;-81
2022/11/18 09:54:24;;;;;;;16.25;9.93;;;5.80;99.90;;;;;;5107551;27;20039;-82
2022/11/18 09:56:52;;;;;;;22.80;10.77;;;5.80;99.90;;;;;;5109530;27;20043;-81
2022/11/18 09:59:20;;;;;;;21.95;11.43;;;5.80;99.90;;;;;;5126460;27;20070;-83
2022/11/18 10:01:47;;;;;;;17.70;10.35;;;6.70;99.90;;;;;;5109400;27;20042;-79
2022/11/18 10:04:16;;;;;;;18.90;11.13;;;5.80;99.90;;;;;;5126426;27;20526;-79
2022/11/18 10:06:42;;;;;;;20.58;10.13;;;5.80;99.90;;;;;;5127803;27;20082;-79
2022/11/18 10:09:37;;;;;;;17.73;9.65;;;5.80;99.90;;;;;;5127630;27;20096;-79
2022/11/18 10:12:24;;;;;;;17.00;10.10;;;5.80;99.90;;;;;;5108720;27;20047;-79
2022/11/18 10:15:15;;;;;;;18.75;9.88;;;5.80;99.90;;;;;;5126208;27;20051;-79
2022/11/18 10:17:58;;;;;;;19.17;10.82;;;5.80;99.90;;;;;;5109425;27;20047;-79
2022/11/18 10:20:49;;;;;;;16.88;10.20;;;5.80;99.90;;;;;;5125673;27;20047;-82
2022/11/18 10:23:25;;;;;;;21.63;9.70;;;5.80;99.90;;;;;;5126121;27;20055;-79
2022/11/18 10:25:54;;;;;;;18.40;10.40;;;5.80;99.90;;;;;;5128839;27;20070;-79
2022/11/18 10:28:23;;;;;;;15.95;10.30;;;5.80;99.90;;;;;;5095396;27;20121;-81
2022/11/18 10:30:49;;;;;;;21.20;11.13;;;5.70;99.90;;;;;;5129486;27;20039;-82
2022/11/18 10:33:20;;;;;;;20.17;10.15;;;5.70;99.90;;;;;;5127915;27;20039;-80
2022/11/18 10:35:47;;;;;;;20.20;10.63;;;5.70;99.90;;;;;;5112205;27;20042;-78
2022/11/18 10:38:13;;;;;;;20.08;11.70;;;5.70;99.90;;;;;;5111423;27;20070;-79
2022/11/18 10:40:59;;;;;;;20.50;10.98;;;5.90;99.90;;;;;;5129106;27;20123;-81
2022/11/18 10:43:49;;;;;;;21.48;11.52;;;5.50;99.90;;;;;;5129551;27;20405;-80
2022/11/18 10:46:38;;;;;;;22.38;12.18;;;5.50;99.90;;;;;;5128393;27;20043;-80
2022/11/18 10:49:09;;;;;;;24.27;11.63;;;5.50;99.90;;;;;;5129168;27;20050;-80
2022/11/18 10:51:41;;;;;;;26.05;11.98;;;5.50;99.90;;;;;;5111861;27;20047;-80
2022/11/18 10:54:20;;;;;;;23.10;11.93;;;6.00;99.90;;;;;;5128494;27;20050;-79
2022/11/18 10:56:45;;;;;;;18.55;12.20;;;5.40;99.90;;;;;;5129595;27;20426;-79
2022/11/18 10:59:34;;;;;;;24.23;13.02;;;5.40;99.90;;;;;;5128279;27;20046;-80
2022/11/18 11:02:19;;;;;;;21.92;11.82;;;5.40;99.90;;;;;;5111793;27;20054;-79
2022/11/18 11:04:47;;;;;;;26.05;13.80;;;5.40;99.90;;;;;;5128775;27;20065;-81
2022/11/18 11:07:22;;;;;;;28.95;13.93;;;5.30;99.90;;;;;;5128109;27;20046;-78
2022/11/18 11:10:03;;;;;;;21.90;12.38;;;5.30;99.90;;;;;;5128682;27;20039;-81
2022/11/18 11:12:35;;;;;;;25.02;13.90;;;5.20;99.90;;;;;;5128444;27;20091;-78
2022/11/18 11:15:11;;;;;;;28.88;13.43;;;5.20;99.90;;;;;;5111717;27;20038;-80
2022/11/18 11:18:40;;;;;;;29.13;14.00;;;5.10;99.90;;;;;;5111243;27;20049;-81
2022/11/18 11:20:35;;;;;;;27.20;13.68;;;5.30;99.90;;;;;;5127634;27;20046;-80
2022/11/18 11:23:11;;;;;;;27.73;14.02;;;5.00;99.90;;;;;;5111831;27;20077;-80
2022/11/18 11:25:49;;;;;;;24.45;12.48;;;5.00;99.90;;;;;;5111256;27;20359;-81
2022/11/18 11:28:43;;;;;;;25.40;12.52;;;5.00;99.90;;;;;;5127700;27;20146;-80
2022/11/18 11:31:14;;;;;;;;;;;5.00;99.90;;;;;;5128811;27;20043;-80
2022/11/18 11:34:00;;;;;;;24.98;13.38;;;4.90;99.90;;;;;;5127657;27;19919;-80
2022/11/18 11:36:38;;;;;;;25.00;12.15;;;4.90;99.90;;;;;;5128629;27;20051;-80
2022/11/18 11:39:29;;;;;;;31.02;14.75;;;4.90;99.90;;;;;;5128056;27;20503;-80
2022/11/18 11:42:09;;;;;;;27.27;15.00;;;4.90;99.90;;;;;;5110162;27;20506;-81
2022/11/18 11:44:56;;;;;;;28.98;13.30;;;5.10;99.90;;;;;;5111070;27;20077;-80
2022/11/18 11:47:48;;;;;;;23.02;12.60;;;4.90;99.90;;;;;;5127884;27;20129;-80
2022/11/18 11:50:52;;;;;;;24.65;12.05;;;4.90;99.90;;;;;;5127864;27;20043;-81
2022/11/18 11:53:36;;;;;;;28.05;12.82;;;4.80;99.90;;;;;;5110917;27;20046;-80
2022/11/18 11:56:16;;;;;;;26.15;12.88;;;4.80;99.90;;;;;;5127666;27;20050;-80
2022/11/18 11:59:09;;;;;;;25.52;13.50;;;4.80;99.90;;;;;;5126714;27;20039;-80
2022/11/18 12:02:06;;;;;;;23.00;12.80;;;4.70;99.90;;;;;;5111249;27;20382;-81
2022/11/18 12:04:49;;;;;;;32.88;14.77;;;4.70;99.90;;;;;;5127577;27;20043;-81
2022/11/18 12:07:32;;;;;;;30.80;14.93;;;4.70;99.90;;;;;;5110324;27;20428;-82
2022/11/18 12:10:31;;;;;;;27.25;13.85;;;4.70;99.90;;;;;;5128365;27;20051;-81
2022/11/18 12:13:12;;;;;;;25.38;13.68;;;4.70;99.90;;;;;;5110364;27;20050;-80
2022/11/18 12:16:08;;;;;;;35.47;12.85;;;4.80;99.90;;;;;;5127285;27;20034;-80
2022/11/18 12:18:58;;;;;;;25.67;12.80;;;4.70;99.90;;;;;;5131582;27;20061;-79
2022/11/18 12:21:46;;;;;;;23.95;12.60;;;4.70;99.90;;;;;;5131909;27;20076;-79
2022/11/18 12:24:31;;;;;;;21.77;12.60;;;4.80;99.90;;;;;;5113784;27;20054;-80
2022/11/18 12:27:03;;;;;;;26.40;13.57;;;4.80;99.90;;;;;;5114243;27;20107;-79
2022/11/18 12:29:41;;;;;;;23.27;13.07;;;4.80;99.90;;;;;;5113972;27;20093;-79
2022/11/18 12:32:25;;;;;;;24.40;13.57;;;5.00;99.90;;;;;;5130995;27;20121;-79
2022/11/18 12:35:04;;;;;;;24.58;13.27;;;5.60;99.90;;;;;;5114881;27;20039;-79
2022/11/18 12:37:30;;;;;;;21.73;11.80;;;4.80;99.90;;;;;;5113938;27;20039;-79
2022/11/18 12:39:56;;;;;;;26.55;13.35;;;4.80;99.90;;;;;;5114355;27;20490;-79
2022/11/18 12:45:44;;;;;;;19.08;10.70;;;4.80;99.90;;;;;;5130915;27;20043;-79
2022/11/18 12:48:22;;;;;;;21.58;12.35;;;4.70;99.90;;;;;;5131504;27;20589;-79
2022/11/18 12:50:53;;;;;;;22.55;11.95;;;4.80;99.90;;;;;;5130943;27;20051;-79
2022/11/18 12:53:39;;;;;;;18.42;11.25;;;5.30;99.90;;;;;;5131128;27;20127;-79
2022/11/18 12:56:26;;;;;;;19.60;10.73;;;4.70;99.90;;;;;;5131004;27;20059;-79
2022/11/18 12:58:58;;;;;;;19.70;11.30;;;4.70;99.90;;;;;;5130020;27;20035;-79
2022/11/18 13:01:34;;;;;;;18.92;10.88;;;5.70;99.90;;;;;;5113741;27;20049;-80
2022/11/18 13:04:14;;;;;;;20.95;11.38;;;4.60;99.90;;;;;;5130742;27;20307;-80
2022/11/18 13:06:41;;;;;;;20.95;11.05;;;4.60;99.90;;;;;;5131163;27;20118;-80
2022/11/18 13:09:18;;;;;;;21.67;11.90;;;4.60;99.90;;;;;;5114195;27;20401;-80
2022/11/18 13:12:16;;;;;;;23.10;12.45;;;4.60;99.90;;;;;;5129836;27;20045;-80
2022/11/18 13:17:51;;;;;;;22.63;11.38;;;4.50;99.90;;;;;;5130788;27;20055;-81
2022/11/18 13:20:32;;;;;;;17.58;10.85;;;4.50;99.90;;;;;;5112568;27;20034;-80
2022/11/18 13:25:46;;;;;;;19.52;11.65;;;4.50;99.90;;;;;;5130245;27;20078;-80
2022/11/18 13:28:31;;;;;;;23.23;13.02;;;4.40;99.90;;;;;;5130084;27;20092;-80
2022/11/18 13:31:33;;;;;;;22.42;12.73;;;4.40;99.90;;;;;;5113685;27;20043;-81
2022/11/18 13:34:10;;;;;;;28.67;12.85;;;3.70;99.90;;;;;;5130175;27;20042;-80